Time;durP1;ratioP1;P1;durP2;ratioP2;P2;SDS_P1;SDS_P2;PMS_P1;PMS_P2;Temp;Humidity;BMP_temperature;BMP_pressure;BME280_temperature;BME280_humidity;BME280_pressure;Samples;Min_cycle;Max_cycle;Signal;HPM_P1;HPM_P2
2022/01/27 00:01:46;;;;;;;32.78;14.13;;;;;;;;;;5010066;28;20029;-82
2022/01/27 00:04:17;;;;;;;45.33;14.35;;;;;;;;;;5006633;28;20080;-83
2022/01/27 00:06:42;;;;;;;47.13;15.02;;;;;;;;;;5015847;28;20018;-80
2022/01/27 00:09:20;;;;;;;35.97;13.52;;;;;;;;;;5003886;28;20038;-82
2022/01/27 00:11:47;;;;;;;39.70;14.00;;;;;;;;;;5003933;28;20085;-80
2022/01/27 00:14:14;;;;;;;42.60;15.27;;;;;;;;;;5014443;28;20052;-81
2022/01/27 00:16:43;;;;;;;37.75;14.60;;;;;;;;;;5004675;28;20056;-82
2022/01/27 00:19:10;;;;;;;37.35;14.90;;;;;;;;;;4996665;28;20032;-82
2022/01/27 00:21:37;;;;;;;56.38;16.30;;;;;;;;;;5001953;28;20484;-82
2022/01/27 00:24:03;;;;;;;38.90;14.38;;;;;;;;;;5016894;28;20428;-82
2022/01/27 00:26:29;;;;;;;41.88;15.90;;;;;;;;;;4988598;28;20439;-82
2022/01/27 00:28:54;;;;;;;36.97;14.23;;;;;;;;;;4979674;28;20148;-82
2022/01/27 00:31:21;;;;;;;36.78;13.45;;;;;;;;;;4999186;28;20022;-82
2022/01/27 00:33:48;;;;;;;29.17;13.13;;;;;;;;;;5003240;28;20026;-82
2022/01/27 00:36:13;;;;;;;37.80;13.65;;;;;;;;;;4994385;28;20495;-82
2022/01/27 00:38:39;;;;;;;37.40;14.15;;;;;;;;;;5001681;28;20034;-82
2022/01/27 00:41:05;;;;;;;37.92;14.38;;;;;;;;;;5004776;28;20381;-82
2022/01/27 00:43:31;;;;;;;29.52;12.63;;;;;;;;;;5007501;28;20105;-81
2022/01/27 00:45:56;;;;;;;37.65;14.30;;;;;;;;;;5002142;28;20133;-82
2022/01/27 00:48:22;;;;;;;34.58;14.32;;;;;;;;;;4994527;28;20519;-81
2022/01/27 00:50:54;;;;;;;33.80;13.20;;;;;;;;;;4987961;28;20097;-82
2022/01/27 00:53:42;;;;;;;33.55;13.57;;;;;;;;;;4981785;28;20037;-84
2022/01/27 00:56:35;;;;;;;35.17;13.40;;;;;;;;;;5004245;28;20031;-81
2022/01/27 00:59:15;;;;;;;31.20;12.45;;;;;;;;;;5002893;28;20117;-82
2022/01/27 01:01:45;;;;;;;32.92;12.73;;;;;;;;;;5010499;28;20025;-82
2022/01/27 01:04:11;;;;;;;35.35;14.88;;;;;;;;;;5014632;28;20464;-82
2022/01/27 01:06:44;;;;;;;30.63;11.40;;;;;;;;;;5007873;28;20017;-80
2022/01/27 01:19:47;;;;;;;35.78;12.95;;;;;;;;;;5013415;28;20054;-81
2022/01/27 01:33:07;;;;;;;35.85;12.95;;;;;;;;;;5007732;28;20056;-82
2022/01/27 01:35:47;;;;;;;31.63;12.90;;;;;;;;;;4981307;28;20051;-81
2022/01/27 01:38:15;;;;;;;35.22;14.63;;;;;;;;;;4976300;28;20625;-82
2022/01/27 01:40:40;;;;;;;35.60;13.68;;;;;;;;;;4999887;28;20026;-82
2022/01/27 01:43:05;;;;;;;32.85;12.68;;;;;;;;;;4994027;28;20034;-82
2022/01/27 01:45:35;;;;;;;32.80;13.90;;;;;;;;;;4999405;28;20041;-81
2022/01/27 01:48:00;;;;;;;34.28;14.30;;;;;;;;;;5000502;28;20239;-82
2022/01/27 01:50:26;;;;;;;32.70;14.13;;;;;;;;;;4976424;28;20034;-82
2022/01/27 01:52:51;;;;;;;33.28;13.60;;;;;;;;;;5003294;28;20053;-81
2022/01/27 01:55:18;;;;;;;32.95;13.35;;;;;;;;;;4999637;28;20101;-82
2022/01/27 01:57:44;;;;;;;33.42;11.73;;;;;;;;;;4996578;28;20092;-82
2022/01/27 02:00:11;;;;;;;38.17;14.27;;;;;;;;;;4999373;28;20030;-82
2022/01/27 02:02:36;;;;;;;28.92;12.73;;;;;;;;;;4997547;28;20061;-82
2022/01/27 02:05:02;;;;;;;30.60;12.95;;;;;;;;;;4985233;28;20026;-82
2022/01/27 02:07:38;;;;;;;39.20;13.85;;;;;;;;;;4995465;28;20022;-82
2022/01/27 02:18:00;;;;;;;25.88;12.07;;;;;;;;;;4996217;28;20532;-82
2022/01/27 02:20:29;;;;;;;37.17;13.57;;;;;;;;;;4996606;28;20083;-81
2022/01/27 02:22:55;;;;;;;32.92;12.95;;;;;;;;;;4976390;28;20038;-82
2022/01/27 02:25:20;;;;;;;34.08;13.07;;;;;;;;;;4993846;28;20040;-81
2022/01/27 02:27:45;;;;;;;31.80;13.05;;;;;;;;;;5000595;28;20034;-83
2022/01/27 02:30:11;;;;;;;29.65;12.75;;;;;;;;;;5000463;28;20023;-82
2022/01/27 02:32:37;;;;;;;34.85;14.15;;;;;;;;;;5007424;28;20026;-82
2022/01/27 02:35:04;;;;;;;32.80;13.45;;;;;;;;;;5002838;28;20049;-82
2022/01/27 02:37:29;;;;;;;35.85;13.60;;;;;;;;;;4998877;28;20045;-82
2022/01/27 02:39:55;;;;;;;29.38;12.38;;;;;;;;;;5004074;28;20023;-82
2022/01/27 02:42:29;;;;;;;29.75;12.40;;;;;;;;;;5007982;28;20029;-82
2022/01/27 02:44:54;;;;;;;29.45;12.48;;;;;;;;;;5005272;28;20025;-81
2022/01/27 02:47:22;;;;;;;30.73;12.60;;;;;;;;;;4984159;28;20106;-81
2022/01/27 02:49:49;;;;;;;27.23;12.40;;;;;;;;;;5004298;28;20038;-82
2022/01/27 02:52:15;;;;;;;34.92;13.45;;;;;;;;;;5013003;28;20030;-80
2022/01/27 02:54:41;;;;;;;31.30;12.65;;;;;;;;;;4989328;28;20061;-81
2022/01/27 02:57:07;;;;;;;35.97;13.18;;;;;;;;;;5000960;28;20030;-82
2022/01/27 02:59:32;;;;;;;34.22;12.38;;;;;;;;;;4980142;28;20027;-82
2022/01/27 03:01:58;;;;;;;32.63;13.48;;;;;;;;;;4996800;28;20035;-80
2022/01/27 03:04:24;;;;;;;30.77;13.13;;;;;;;;;;4986894;28;20034;-82
2022/01/27 03:06:50;;;;;;;33.90;12.55;;;;;;;;;;5012294;28;20030;-81
2022/01/27 03:09:16;;;;;;;30.88;12.70;;;;;;;;;;5005783;28;20373;-82
2022/01/27 03:11:52;;;;;;;36.75;15.02;;;;;;;;;;4996795;28;20122;-82
2022/01/27 03:14:21;;;;;;;34.95;14.27;;;;;;;;;;4984340;28;20106;-81
2022/01/27 03:16:48;;;;;;;39.92;14.10;;;;;;;;;;4980410;28;20030;-81
2022/01/27 03:19:13;;;;;;;37.95;13.27;;;;;;;;;;4983782;28;20034;-81
2022/01/27 03:21:39;;;;;;;33.28;12.98;;;;;;;;;;5004746;28;20495;-81
2022/01/27 03:24:05;;;;;;;33.25;13.45;;;;;;;;;;4997142;28;20061;-81
2022/01/27 03:26:31;;;;;;;35.58;13.10;;;;;;;;;;4995679;28;20019;-81
2022/01/27 03:28:58;;;;;;;37.13;14.02;;;;;;;;;;4994159;28;20064;-81
2022/01/27 03:31:23;;;;;;;33.17;13.07;;;;;;;;;;5007582;28;20029;-81
2022/01/27 03:33:49;;;;;;;30.13;12.38;;;;;;;;;;4986348;28;20113;-81
2022/01/27 03:36:15;;;;;;;33.13;12.98;;;;;;;;;;5006657;28;20029;-81
2022/01/27 03:38:41;;;;;;;40.30;14.13;;;;;;;;;;5001796;28;20393;-81
2022/01/27 03:41:08;;;;;;;32.03;13.77;;;;;;;;;;4978227;28;20030;-81
2022/01/27 03:43:36;;;;;;;34.35;12.38;;;;;;;;;;4996029;28;20026;-81
2022/01/27 03:46:02;;;;;;;39.90;15.38;;;;;;;;;;4997413;28;20045;-81
2022/01/27 03:48:28;;;;;;;43.22;14.18;;;;;;;;;;4997046;28;20041;-81
2022/01/27 03:50:54;;;;;;;35.55;12.73;;;;;;;;;;4996007;28;20034;-81
2022/01/27 03:53:19;;;;;;;35.28;13.43;;;;;;;;;;4995842;28;20033;-81
2022/01/27 03:55:45;;;;;;;37.53;13.23;;;;;;;;;;4996942;28;20042;-82
2022/01/27 03:58:11;;;;;;;36.95;13.25;;;;;;;;;;4993560;28;20033;-81
2022/01/27 04:00:37;;;;;;;41.63;13.70;;;;;;;;;;4985267;28;20030;-81
2022/01/27 04:03:06;;;;;;;35.13;13.90;;;;;;;;;;4995021;28;20026;-81
2022/01/27 04:06:07;;;;;;;32.50;12.73;;;;;;;;;;4995316;28;20392;-80
2022/01/27 04:08:25;;;;;;;30.98;12.75;;;;;;;;;;4992187;28;20046;-80
2022/01/27 04:10:50;;;;;;;33.75;12.38;;;;;;;;;;5007176;28;20025;-82
2022/01/27 04:13:16;;;;;;;33.08;13.15;;;;;;;;;;4989609;28;20045;-82
2022/01/27 04:15:43;;;;;;;33.35;12.52;;;;;;;;;;4998669;28;20161;-81
2022/01/27 04:18:09;;;;;;;26.88;11.65;;;;;;;;;;4992906;28;20590;-81
2022/01/27 04:20:36;;;;;;;38.20;14.77;;;;;;;;;;5002006;28;20542;-81
2022/01/27 04:23:02;;;;;;;35.65;14.25;;;;;;;;;;4999038;28;20033;-82
2022/01/27 04:25:27;;;;;;;35.20;13.52;;;;;;;;;;4995999;28;20026;-81
2022/01/27 04:27:57;;;;;;;34.90;13.18;;;;;;;;;;4976625;28;20121;-82
2022/01/27 04:30:25;;;;;;;31.63;12.98;;;;;;;;;;4999884;28;20580;-81
2022/01/27 04:32:54;;;;;;;35.00;13.50;;;;;;;;;;5004457;28;20045;-82
2022/01/27 04:35:22;;;;;;;27.27;11.63;;;;;;;;;;4998751;28;20050;-82
2022/01/27 04:40:24;;;;;;;29.40;12.38;;;;;;;;;;4995249;28;20018;-81
2022/01/27 04:48:28;;;;;;;32.95;12.95;;;;;;;;;;4993024;28;20098;-82
2022/01/27 04:50:55;;;;;;;28.23;12.45;;;;;;;;;;4992137;28;20026;-81
2022/01/27 04:53:27;;;;;;;27.98;13.40;;;;;;;;;;5001362;28;20054;-81
2022/01/27 04:55:55;;;;;;;29.80;12.48;;;;;;;;;;4992982;28;20037;-80
2022/01/27 04:58:28;;;;;;;29.45;13.02;;;;;;;;;;4992781;28;20026;-80
2022/01/27 05:00:56;;;;;;;29.15;12.73;;;;;;;;;;4995604;28;20587;-79
2022/01/27 05:03:33;;;;;;;27.55;11.90;;;;;;;;;;4998182;28;20392;-80
2022/01/27 05:05:58;;;;;;;29.67;12.57;;;;;;;;;;5003588;28;20060;-81
2022/01/27 05:08:24;;;;;;;26.80;11.77;;;;;;;;;;4991964;28;20108;-82
2022/01/27 05:10:57;;;;;;;28.23;11.93;;;;;;;;;;4973335;28;20481;-79
2022/01/27 05:13:26;;;;;;;28.67;12.93;;;;;;;;;;5006580;28;20030;-80
2022/01/27 05:15:51;;;;;;;35.78;13.43;;;;;;;;;;4995452;28;20415;-82
2022/01/27 05:18:17;;;;;;;29.90;13.07;;;;;;;;;;4979734;28;20026;-81
2022/01/27 05:20:42;;;;;;;27.10;11.32;;;;;;;;;;4994983;28;20075;-83
2022/01/27 05:23:08;;;;;;;30.05;12.23;;;;;;;;;;4974507;28;20030;-82
2022/01/27 05:25:33;;;;;;;29.15;13.43;;;;;;;;;;4973946;28;20022;-83
2022/01/27 05:27:59;;;;;;;24.38;12.00;;;;;;;;;;4992433;28;20087;-82
2022/01/27 05:30:24;;;;;;;27.27;12.88;;;;;;;;;;4978657;28;20034;-82
2022/01/27 05:32:50;;;;;;;28.13;12.45;;;;;;;;;;4992134;28;20042;-82
2022/01/27 05:35:15;;;;;;;28.27;12.40;;;;;;;;;;4999671;28;20101;-81
2022/01/27 05:37:40;;;;;;;32.90;13.88;;;;;;;;;;5027623;28;20017;-81
2022/01/27 05:40:07;;;;;;;30.63;12.45;;;;;;;;;;5012831;28;20033;-82
2022/01/27 05:42:32;;;;;;;30.95;13.00;;;;;;;;;;4998032;28;20028;-82
2022/01/27 05:44:57;;;;;;;29.00;12.50;;;;;;;;;;4976713;28;20062;-81
2022/01/27 05:47:23;;;;;;;26.25;12.10;;;;;;;;;;5004978;28;20054;-82
2022/01/27 05:49:48;;;;;;;23.75;10.50;;;;;;;;;;4994869;28;20026;-82
2022/01/27 05:52:13;;;;;;;28.40;12.23;;;;;;;;;;4994529;28;20026;-82
2022/01/27 05:54:39;;;;;;;32.30;13.05;;;;;;;;;;4990589;28;20133;-82
2022/01/27 05:57:04;;;;;;;29.88;12.68;;;;;;;;;;4994337;28;20397;-81
2022/01/27 05:59:30;;;;;;;34.97;14.82;;;;;;;;;;4996238;28;20022;-81
2022/01/27 06:01:56;;;;;;;42.63;16.13;;;;;;;;;;4994897;28;20064;-82
2022/01/27 06:04:21;;;;;;;40.47;16.38;;;;;;;;;;5004467;28;20065;-81
2022/01/27 06:06:46;;;;;;;44.45;16.30;;;;;;;;;;4977145;28;20081;-81
2022/01/27 06:09:12;;;;;;;43.55;17.00;;;;;;;;;;4994390;28;20487;-81
2022/01/27 06:11:37;;;;;;;48.55;16.20;;;;;;;;;;5003381;28;20065;-81
2022/01/27 06:14:03;;;;;;;41.55;14.15;;;;;;;;;;4981870;28;20030;-81
2022/01/27 06:16:28;;;;;;;40.45;14.40;;;;;;;;;;5002205;28;20026;-81
2022/01/27 06:18:53;;;;;;;38.15;15.43;;;;;;;;;;4997398;28;20447;-81
2022/01/27 06:21:19;;;;;;;51.88;16.02;;;;;;;;;;5003544;28;20036;-81
2022/01/27 06:23:44;;;;;;;43.20;16.98;;;;;;;;;;4989009;28;20026;-81
2022/01/27 06:26:10;;;;;;;24.33;9.13;;;;;;;;;;4998958;28;20061;-82
2022/01/27 06:28:35;;;;;;;51.67;16.75;;;;;;;;;;4980919;28;20045;-82
2022/01/27 06:31:00;;;;;;;38.53;15.73;;;;;;;;;;5001253;28;20026;-80
2022/01/27 06:33:26;;;;;;;47.10;17.05;;;;;;;;;;5007471;28;20022;-81
2022/01/27 06:35:51;;;;;;;47.65;14.90;;;;;;;;;;4997585;28;20547;-81
2022/01/27 06:38:17;;;;;;;37.50;15.23;;;;;;;;;;4996377;28;20151;-80
2022/01/27 06:40:43;;;;;;;36.40;14.40;;;;;;;;;;4980404;28;20034;-81
2022/01/27 06:43:12;;;;;;;55.40;16.88;;;;;;;;;;4996333;28;20732;-82
2022/01/27 06:45:37;;;;;;;43.75;14.52;;;;;;;;;;5001913;28;20022;-81
2022/01/27 06:48:03;;;;;;;25.55;10.63;;;;;;;;;;5004410;28;20462;-81
2022/01/27 06:50:31;;;;;;;29.40;11.68;;;;;;;;;;4998661;28;20433;-82
2022/01/27 06:52:56;;;;;;;37.35;12.55;;;;;;;;;;4995972;28;20453;-82
2022/01/27 06:55:22;;;;;;;39.03;14.32;;;;;;;;;;5006214;28;20022;-80
2022/01/27 06:57:47;;;;;;;41.33;14.98;;;;;;;;;;5012939;28;20140;-81
2022/01/27 07:00:13;;;;;;;49.30;17.45;;;;;;;;;;4998522;28;20029;-81
2022/01/27 07:02:39;;;;;;;43.10;16.23;;;;;;;;;;4996749;28;20045;-81
2022/01/27 07:05:04;;;;;;;52.63;16.80;;;;;;;;;;5005156;28;20392;-80
2022/01/27 07:07:30;;;;;;;50.78;16.73;;;;;;;;;;4995330;28;20420;-81
2022/01/27 07:09:55;;;;;;;38.03;13.50;;;;;;;;;;4993426;28;20035;-81
2022/01/27 07:12:21;;;;;;;31.45;13.05;;;;;;;;;;5005782;28;20019;-81
2022/01/27 07:14:46;;;;;;;40.30;12.63;;;;;;;;;;4995314;28;20049;-81
2022/01/27 07:17:13;;;;;;;22.20;11.55;;;;;;;;;;4997028;28;20026;-81
2022/01/27 07:19:39;;;;;;;38.65;13.07;;;;;;;;;;4990374;28;20508;-82
2022/01/27 07:22:04;;;;;;;17.42;7.82;;;;;;;;;;4994790;28;20496;-81
2022/01/27 07:24:29;;;;;;;20.33;8.40;;;;;;;;;;5010632;28;20045;-81
2022/01/27 07:26:55;;;;;;;19.83;10.23;;;;;;;;;;4981527;28;20022;-81
2022/01/27 07:29:20;;;;;;;29.42;11.32;;;;;;;;;;4995073;28;20468;-81
2022/01/27 07:31:46;;;;;;;19.75;8.32;;;;;;;;;;5001557;28;20034;-81
2022/01/27 07:34:11;;;;;;;18.75;8.10;;;;;;;;;;5003788;28;20072;-81
2022/01/27 07:36:37;;;;;;;23.33;8.82;;;;;;;;;;5003488;28;20026;-81
2022/01/27 07:39:03;;;;;;;15.48;7.70;;;;;;;;;;4995819;28;20460;-79
2022/01/27 07:41:28;;;;;;;36.25;13.50;;;;;;;;;;5004796;28;20080;-80
2022/01/27 07:43:54;;;;;;;40.53;13.27;;;;;;;;;;5003248;28;20034;-81
2022/01/27 07:46:19;;;;;;;35.00;13.05;;;;;;;;;;4976087;28;20080;-81
2022/01/27 07:48:45;;;;;;;20.73;9.57;;;;;;;;;;4996210;28;20453;-79
2022/01/27 07:51:11;;;;;;;30.58;11.48;;;;;;;;;;4996780;28;20073;-82
2022/01/27 07:53:38;;;;;;;42.45;16.35;;;;;;;;;;4996228;28;20053;-81
2022/01/27 07:56:04;;;;;;;34.80;11.80;;;;;;;;;;4979085;28;20404;-82
2022/01/27 07:58:31;;;;;;;33.83;13.63;;;;;;;;;;4995995;28;20030;-81
2022/01/27 08:00:56;;;;;;;33.47;11.50;;;;;;;;;;5005235;28;20037;-82
2022/01/27 08:03:22;;;;;;;12.02;6.90;;;;;;;;;;5001195;28;20034;-83
2022/01/27 08:05:47;;;;;;;43.38;15.30;;;;;;;;;;4996924;28;20038;-82
2022/01/27 08:08:13;;;;;;;47.13;14.48;;;;;;;;;;4998040;28;20038;-82
2022/01/27 08:10:38;;;;;;;49.25;16.50;;;;;;;;;;4995161;28;20038;-83
2022/01/27 08:13:05;;;;;;;38.55;15.57;;;;;;;;;;4996413;28;20472;-82
2022/01/27 08:15:31;;;;;;;44.55;12.50;;;;;;;;;;4996217;28;20499;-83
2022/01/27 08:17:57;;;;;;;45.75;12.90;;;;;;;;;;4995885;28;20034;-83
2022/01/27 08:20:22;;;;;;;35.40;11.85;;;;;;;;;;4994506;28;20022;-83
2022/01/27 08:22:50;;;;;;;34.22;12.30;;;;;;;;;;4995381;28;20118;-83
2022/01/27 08:25:16;;;;;;;42.35;14.50;;;;;;;;;;4988370;28;20026;-83
2022/01/27 08:27:45;;;;;;;49.33;16.13;;;;;;;;;;4978539;28;20509;-83
2022/01/27 08:30:12;;;;;;;47.10;15.68;;;;;;;;;;4999978;28;20050;-82
2022/01/27 08:33:20;;;;;;;36.72;12.27;;;;;;;;;;5003585;28;20469;-82
2022/01/27 08:35:26;;;;;;;36.30;13.75;;;;;;;;;;5010824;28;20046;-83
2022/01/27 08:37:52;;;;;;;45.17;14.93;;;;;;;;;;5016014;28;20130;-82
2022/01/27 08:40:19;;;;;;;12.25;6.65;;;;;;;;;;4999706;28;20028;-83
2022/01/27 08:42:45;;;;;;;50.85;17.35;;;;;;;;;;5003802;28;20037;-83
2022/01/27 08:45:12;;;;;;;40.67;14.93;;;;;;;;;;5016222;28;20030;-84
2022/01/27 08:47:38;;;;;;;25.92;10.43;;;;;;;;;;4991819;28;20093;-83
2022/01/27 08:50:06;;;;;;;41.30;13.70;;;;;;;;;;4998011;28;20107;-82
2022/01/27 08:52:32;;;;;;;41.00;15.30;;;;;;;;;;5001786;28;20109;-82
2022/01/27 08:54:58;;;;;;;39.38;14.45;;;;;;;;;;4978320;28;20109;-81
2022/01/27 08:57:23;;;;;;;41.63;14.85;;;;;;;;;;4995482;28;20038;-82
2022/01/27 08:59:51;;;;;;;35.53;13.02;;;;;;;;;;4992009;28;20023;-81
2022/01/27 09:02:16;;;;;;;35.50;14.43;;;;;;;;;;4990789;28;20057;-81
2022/01/27 09:04:41;;;;;;;41.50;13.90;;;;;;;;;;4988219;28;20473;-81
2022/01/27 09:07:07;;;;;;;34.20;13.77;;;;;;;;;;4995137;28;20086;-81
2022/01/27 09:09:32;;;;;;;30.55;12.07;;;;;;;;;;4979175;28;20033;-81
2022/01/27 09:11:59;;;;;;;31.95;13.15;;;;;;;;;;4998660;28;20524;-81
2022/01/27 09:14:29;;;;;;;41.20;13.82;;;;;;;;;;4992601;28;20161;-80
2022/01/27 09:16:55;;;;;;;28.90;11.63;;;;;;;;;;4999189;28;20098;-81
2022/01/27 09:19:21;;;;;;;31.85;11.75;;;;;;;;;;5002982;28;20049;-81
2022/01/27 09:21:46;;;;;;;31.25;11.98;;;;;;;;;;4995206;28;20052;-82
2022/01/27 09:24:15;;;;;;;28.80;11.40;;;;;;;;;;4993726;28;20030;-82
2022/01/27 09:26:52;;;;;;;32.72;11.90;;;;;;;;;;4993364;28;20026;-82
2022/01/27 09:29:19;;;;;;;24.95;10.50;;;;;;;;;;4986367;28;20042;-83
2022/01/27 09:31:49;;;;;;;25.20;10.50;;;;;;;;;;4993757;28;20045;-83
2022/01/27 09:34:15;;;;;;;25.80;10.73;;;;;;;;;;4984008;28;20030;-81
2022/01/27 09:36:41;;;;;;;20.00;9.55;;;;;;;;;;4995624;28;20026;-82
2022/01/27 09:39:07;;;;;;;26.27;10.30;;;;;;;;;;4994394;28;20023;-83
2022/01/27 09:41:37;;;;;;;22.83;10.25;;;;;;;;;;4994934;28;20031;-83
2022/01/27 09:44:03;;;;;;;25.65;10.38;;;;;;;;;;4994091;28;20026;-83
2022/01/27 09:46:28;;;;;;;24.20;9.35;;;;;;;;;;4994690;28;20118;-82
2022/01/27 09:48:54;;;;;;;24.63;10.02;;;;;;;;;;4988099;28;20055;-83
2022/01/27 09:54:05;;;;;;;27.98;10.63;;;;;;;;;;4992341;28;20034;-82
2022/01/27 09:56:31;;;;;;;21.80;8.60;;;;;;;;;;5005526;28;20057;-82
2022/01/27 09:58:56;;;;;;;20.05;9.45;;;;;;;;;;4996025;28;20085;-83
2022/01/27 10:01:22;;;;;;;19.60;8.68;;;;;;;;;;5004034;28;20025;-83
2022/01/27 10:04:07;;;;;;;22.88;8.73;;;;;;;;;;4995492;28;20037;-82
2022/01/27 10:06:34;;;;;;;20.65;9.13;;;;;;;;;;4994281;28;20026;-82
2022/01/27 10:09:14;;;;;;;23.35;8.73;;;;;;;;;;4992501;28;20110;-82
2022/01/27 10:11:40;;;;;;;21.20;8.52;;;;;;;;;;4993232;28;20392;-81
2022/01/27 10:14:18;;;;;;;21.70;8.15;;;;;;;;;;5008489;28;20492;-82
2022/01/27 10:16:44;;;;;;;22.45;9.38;;;;;;;;;;5014246;28;20040;-82
2022/01/27 10:19:11;;;;;;;19.33;7.90;;;;;;;;;;5014020;28;20030;-81
2022/01/27 10:21:37;;;;;;;22.77;9.10;;;;;;;;;;5013834;28;20022;-82
2022/01/27 10:24:30;;;;;;;23.45;8.98;;;;;;;;;;4996060;28;20033;-82
2022/01/27 10:27:55;;;;;;;19.13;7.82;;;;;;;;;;4995043;28;20126;-80
2022/01/27 10:32:51;;;;;;;20.10;8.68;;;;;;;;;;4994464;28;20038;-81
2022/01/27 10:35:22;;;;;;;18.05;8.13;;;;;;;;;;4988535;28;20033;-82
2022/01/27 10:38:08;;;;;;;16.77;7.90;;;;;;;;;;5006364;28;20030;-82
2022/01/27 10:40:46;;;;;;;19.38;7.88;;;;;;;;;;4992082;28;20046;-82
2022/01/27 10:43:17;;;;;;;17.50;8.38;;;;;;;;;;4994359;28;20018;-82
2022/01/27 10:46:00;;;;;;;17.70;7.38;;;;;;;;;;4998946;28;20093;-81
2022/01/27 10:48:30;;;;;;;18.00;8.07;;;;;;;;;;4983101;28;20041;-80
2022/01/27 10:53:21;;;;;;;13.50;7.05;;;;;;;;;;4993079;28;20062;-82
2022/01/27 10:56:05;;;;;;;16.27;8.07;;;;;;;;;;4994450;28;20090;-81
2022/01/27 10:58:31;;;;;;;20.02;7.10;;;;;;;;;;4994743;28;20038;-82
2022/01/27 11:00:58;;;;;;;15.18;6.70;;;;;;;;;;4997428;28;20042;-82
2022/01/27 11:03:25;;;;;;;21.98;8.43;;;;;;;;;;4994412;28;20058;-81
2022/01/27 11:05:51;;;;;;;17.33;7.93;;;;;;;;;;4981232;28;20034;-81
2022/01/27 11:08:19;;;;;;;17.00;7.93;;;;;;;;;;4995670;28;20030;-81
2022/01/27 11:10:48;;;;;;;15.27;6.97;;;;;;;;;;5007425;28;20038;-81
2022/01/27 11:13:16;;;;;;;15.52;7.70;;;;;;;;;;4999634;28;20034;-81
2022/01/27 11:15:42;;;;;;;15.43;7.70;;;;;;;;;;4987399;28;20026;-82
2022/01/27 11:18:09;;;;;;;14.10;7.53;;;;;;;;;;4995067;28;20393;-81
2022/01/27 11:26:02;;;;;;;16.85;8.07;;;;;;;;;;4979255;28;20643;-81
2022/01/27 11:28:28;;;;;;;13.60;6.85;;;;;;;;;;4995536;28;20030;-81
2022/01/27 11:31:07;;;;;;;13.68;7.63;;;;;;;;;;4998713;28;20037;-82
2022/01/27 11:33:35;;;;;;;17.15;7.78;;;;;;;;;;4995963;28;20030;-82
2022/01/27 11:36:12;;;;;;;13.93;7.50;;;;;;;;;;4991108;28;20043;-82
2022/01/27 11:38:39;;;;;;;16.45;7.30;;;;;;;;;;4973105;28;20074;-81
2022/01/27 11:41:05;;;;;;;17.25;8.70;;;;;;;;;;4992156;28;20033;-82
2022/01/27 11:43:33;;;;;;;18.85;7.88;;;;;;;;;;5008357;28;20105;-82
2022/01/27 11:46:13;;;;;;;18.10;8.85;;;;;;;;;;5008356;28;20034;-81
2022/01/27 11:48:38;;;;;;;14.02;7.40;;;;;;;;;;4995225;28;20026;-82
2022/01/27 11:51:06;;;;;;;19.15;8.25;;;;;;;;;;4987521;28;20387;-81
2022/01/27 11:53:46;;;;;;;18.60;8.00;;;;;;;;;;4996647;28;20026;-82
2022/01/27 11:56:23;;;;;;;20.52;8.63;;;;;;;;;;4986636;28;20392;-82
2022/01/27 11:59:01;;;;;;;17.13;7.88;;;;;;;;;;4993846;28;20060;-81
2022/01/27 12:01:31;;;;;;;17.88;8.30;;;;;;;;;;5011414;28;20030;-82
2022/01/27 12:04:04;;;;;;;16.58;7.63;;;;;;;;;;4986292;28;20455;-82
2022/01/27 12:06:32;;;;;;;22.90;9.45;;;;;;;;;;5000560;28;20097;-82
2022/01/27 12:09:30;;;;;;;16.63;8.88;;;;;;;;;;4993481;28;20038;-83
2022/01/27 12:12:00;;;;;;;17.92;8.00;;;;;;;;;;4953732;28;20042;-82
2022/01/27 12:14:47;;;;;;;17.15;8.57;;;;;;;;;;4994046;28;20030;-82
2022/01/27 12:17:13;;;;;;;19.20;9.27;;;;;;;;;;4995573;28;20092;-82
2022/01/27 12:19:54;;;;;;;18.60;8.00;;;;;;;;;;4994039;28;20112;-83
2022/01/27 12:22:26;;;;;;;19.35;8.50;;;;;;;;;;5010923;28;20508;-84
2022/01/27 12:24:54;;;;;;;;;;;;;;;;;;5025942;28;20026;-83
2022/01/27 12:27:21;;;;;;;17.65;8.63;;;;;;;;;;4991053;28;19914;-83
2022/01/27 12:29:49;;;;;;;20.48;9.05;;;;;;;;;;5013877;28;20031;-83
2022/01/27 12:32:17;;;;;;;17.35;7.78;;;;;;;;;;4995439;28;20022;-82
2022/01/27 12:35:04;;;;;;;19.83;9.10;;;;;;;;;;5004370;28;20041;-83
2022/01/27 12:37:34;;;;;;;17.58;7.38;;;;;;;;;;5012358;28;20034;-84
2022/01/27 12:40:06;;;;;;;15.90;7.43;;;;;;;;;;5013855;28;20017;-83
2022/01/27 12:42:36;;;;;;;14.48;7.13;;;;;;;;;;5007043;28;20029;-82
2022/01/27 12:45:12;;;;;;;11.95;5.95;;;;;;;;;;4993468;28;20030;-82
2022/01/27 12:47:39;;;;;;;14.35;7.40;;;;;;;;;;5004760;28;20129;-81
2022/01/27 12:50:17;;;;;;;14.20;7.40;;;;;;;;;;5016513;28;20028;-83
2022/01/27 12:52:46;;;;;;;14.40;6.90;;;;;;;;;;5015065;28;20025;-82
2022/01/27 12:55:20;;;;;;;14.65;7.80;;;;;;;;;;5012733;28;20030;-84
2022/01/27 12:58:00;;;;;;;18.55;7.45;;;;;;;;;;5011417;28;20031;-83
2022/01/27 13:00:37;;;;;;;16.25;7.55;;;;;;;;;;5011894;28;20069;-84
2022/01/27 13:03:03;;;;;;;19.95;8.55;;;;;;;;;;5012647;28;20033;-84
2022/01/27 13:05:36;;;;;;;14.55;7.22;;;;;;;;;;5013415;28;20034;-83
2022/01/27 13:08:06;;;;;;;14.57;8.05;;;;;;;;;;5003831;28;20030;-83
2022/01/27 13:10:32;;;;;;;17.67;8.40;;;;;;;;;;5014466;28;20028;-83
2022/01/27 13:13:06;;;;;;;16.77;7.50;;;;;;;;;;4995408;28;20384;-83
2022/01/27 13:15:31;;;;;;;17.83;8.27;;;;;;;;;;5014620;28;20023;-82
2022/01/27 13:18:10;;;;;;;16.27;7.57;;;;;;;;;;4995543;28;20029;-82
2022/01/27 13:20:43;;;;;;;15.25;8.10;;;;;;;;;;5013845;28;20041;-82
2022/01/27 13:25:41;;;;;;;16.23;7.47;;;;;;;;;;5013182;28;20093;-83
2022/01/27 13:28:18;;;;;;;16.13;7.93;;;;;;;;;;5016427;28;20064;-83
2022/01/27 13:30:44;;;;;;;15.40;7.82;;;;;;;;;;5016334;28;20085;-83
2022/01/27 13:33:15;;;;;;;16.42;7.75;;;;;;;;;;4995177;28;20065;-83
2022/01/27 13:35:41;;;;;;;15.13;7.75;;;;;;;;;;5013819;28;20019;-84
2022/01/27 13:38:26;;;;;;;14.80;7.30;;;;;;;;;;4998174;28;20026;-83
2022/01/27 13:41:22;;;;;;;15.70;7.28;;;;;;;;;;5013312;28;20018;-82
2022/01/27 13:44:15;;;;;;;17.30;7.93;;;;;;;;;;5014150;28;20052;-82
2022/01/27 13:46:50;;;;;;;15.30;7.82;;;;;;;;;;5013848;28;20046;-81
2022/01/27 13:49:24;;;;;;;14.15;7.60;;;;;;;;;;5006791;28;20022;-83
2022/01/27 13:51:57;;;;;;;19.30;9.30;;;;;;;;;;5014125;28;20053;-83
2022/01/27 13:54:34;;;;;;;14.73;7.47;;;;;;;;;;5019608;28;20049;-82
2022/01/27 13:57:20;;;;;;;14.52;7.70;;;;;;;;;;5029453;28;20025;-81
2022/01/27 14:00:08;;;;;;;14.45;7.30;;;;;;;;;;5022016;28;20018;-82
2022/01/27 14:02:36;;;;;;;16.13;7.63;;;;;;;;;;5002764;28;20057;-81
2022/01/27 14:05:14;;;;;;;14.75;7.32;;;;;;;;;;5030984;28;20049;-79
2022/01/27 14:07:42;;;;;;;15.65;7.78;;;;;;;;;;5015758;28;20224;-81
2022/01/27 14:10:17;;;;;;;15.45;7.68;;;;;;;;;;5020467;28;20034;-81
2022/01/27 14:12:49;;;;;;;19.50;8.60;;;;;;;;;;5029274;28;20018;-81
2022/01/27 14:15:40;;;;;;;16.95;7.80;;;;;;;;;;5031593;28;20010;-82
2022/01/27 14:18:10;;;;;;;17.42;8.18;;;;;;;;;;5010720;28;20026;-83
2022/01/27 14:20:56;;;;;;;16.83;8.63;;;;;;;;;;4993109;28;20464;-82
2022/01/27 14:23:42;;;;;;;15.07;8.20;;;;;;;;;;5004158;28;20034;-83
2022/01/27 14:26:17;;;;;;;17.35;7.63;;;;;;;;;;5025397;28;20036;-82
2022/01/27 14:28:42;;;;;;;15.48;8.50;;;;;;;;;;5013216;28;20030;-83
2022/01/27 14:31:08;;;;;;;16.95;8.38;;;;;;;;;;5024631;28;20433;-83
2022/01/27 14:33:33;;;;;;;16.02;8.48;;;;;;;;;;5015315;28;20082;-83
2022/01/27 14:35:58;;;;;;;17.35;8.68;;;;;;;;;;5008685;28;20076;-83
2022/01/27 14:38:24;;;;;;;18.90;8.80;;;;;;;;;;5006866;28;20389;-82
2022/01/27 14:40:49;;;;;;;17.10;8.55;;;;;;;;;;5015103;28;20110;-81
2022/01/27 14:43:15;;;;;;;17.75;8.73;;;;;;;;;;5015853;28;20025;-83
2022/01/27 14:45:41;;;;;;;16.00;8.88;;;;;;;;;;4994437;28;20357;-83
2022/01/27 14:48:06;;;;;;;17.15;8.52;;;;;;;;;;5007852;28;20037;-82
2022/01/27 14:50:33;;;;;;;17.42;8.70;;;;;;;;;;5010071;28;20029;-83
2022/01/27 14:52:59;;;;;;;16.83;8.55;;;;;;;;;;5010271;28;20400;-83
2022/01/27 14:55:27;;;;;;;16.05;8.50;;;;;;;;;;5010537;28;20015;-82
2022/01/27 14:57:52;;;;;;;14.48;7.53;;;;;;;;;;5008589;28;20033;-81
2022/01/27 15:00:19;;;;;;;15.85;7.88;;;;;;;;;;5014330;28;20041;-83
2022/01/27 15:02:45;;;;;;;16.73;8.70;;;;;;;;;;5026933;28;20030;-82
2022/01/27 15:05:11;;;;;;;14.50;7.43;;;;;;;;;;5015433;28;20492;-83
2022/01/27 15:07:37;;;;;;;15.80;7.38;;;;;;;;;;5006615;28;20080;-83
2022/01/27 15:10:05;;;;;;;18.10;9.10;;;;;;;;;;5013683;28;20014;-83
2022/01/27 15:12:30;;;;;;;17.25;7.95;;;;;;;;;;5018153;28;20080;-82
2022/01/27 15:20:24;;;;;;;22.40;7.95;;;;;;;;;;5010001;28;20512;-85
2022/01/27 15:22:51;;;;;;;14.77;6.97;;;;;;;;;;5005488;28;20050;-83
2022/01/27 15:25:19;;;;;;;14.70;6.55;;;;;;;;;;5011325;28;20025;-83
2022/01/27 15:27:46;;;;;;;12.75;7.03;;;;;;;;;;5015213;28;20034;-82
2022/01/27 15:30:12;;;;;;;14.77;7.75;;;;;;;;;;5013655;28;20432;-83
2022/01/27 15:32:37;;;;;;;14.63;7.78;;;;;;;;;;5017230;28;20038;-82